createdAt,value
2018-03-25T00:02:25.221Z,100133.65
2018-03-25T00:04:54.368Z,100130.02
2018-03-25T00:07:24.274Z,100133.84
2018-03-25T00:09:53.130Z,100141.95
2018-03-25T00:12:22.298Z,100140.61
2018-03-25T00:14:52.403Z,100145.53
2018-03-25T00:17:22.363Z,100146.77
2018-03-25T00:19:53.238Z,100146.07
2018-03-25T00:22:22.302Z,100136.19
2018-03-25T00:24:51.601Z,100142.66
2018-03-25T00:29:56.141Z,100150.78
2018-03-25T00:32:26.112Z,100152.05
2018-03-25T00:34:55.327Z,100153.91
2018-03-25T00:37:24.351Z,100153.27
2018-03-25T00:39:53.344Z,100154.31
2018-03-25T00:42:26.076Z,100156.80
2018-03-25T00:44:55.021Z,100146.80
2018-03-25T00:47:24.865Z,100149.95
2018-03-25T00:49:55.311Z,100143.68
2018-03-25T00:52:24.457Z,100148.64
2018-03-25T00:54:53.446Z,100152.16
2018-03-25T00:59:57.405Z,100148.27
2018-03-25T01:02:27.394Z,100150.24
2018-03-25T01:04:57.305Z,100156.13
2018-03-25T01:07:27.166Z,100153.91
2018-03-25T01:09:56.152Z,100148.46
2018-03-25T01:12:25.150Z,100154.45
2018-03-25T01:14:54.206Z,100153.32
2018-03-25T01:17:24.222Z,100156.29
2018-03-25T01:19:54.076Z,100157.06
2018-03-25T01:22:23.233Z,100157.55
2018-03-25T01:24:53.045Z,100154.08
2018-03-25T01:27:22.835Z,100161.61
2018-03-25T01:29:51.840Z,100157.82
2018-03-25T01:32:22.078Z,100167.28
2018-03-25T01:34:55.270Z,100161.78
2018-03-25T01:37:24.348Z,100171.72
2018-03-25T01:39:53.563Z,100165.56
2018-03-25T01:44:57.937Z,100174.94
2018-03-25T01:47:27.657Z,100157.80
2018-03-25T01:49:56.737Z,100171.68
2018-03-25T01:52:26.598Z,100170.02
2018-03-25T01:54:56.946Z,100180.36
2018-03-25T01:57:27.682Z,100184.73
2018-03-25T01:59:57.708Z,100183.77
2018-03-25T02:02:26.789Z,100190.25
2018-03-25T02:04:55.964Z,100189.94
2018-03-25T02:07:25.192Z,100191.27
2018-03-25T02:09:56.190Z,100184.97
2018-03-25T02:12:25.835Z,100189.20
2018-03-25T02:14:55.802Z,100187.89
2018-03-25T02:17:25.053Z,100193.02
2018-03-25T02:22:28.532Z,100198.09
2018-03-25T02:24:57.504Z,100200.68
2018-03-25T02:27:28.142Z,100205.96
2018-03-25T02:29:57.090Z,100209.43
2018-03-25T02:32:26.183Z,100217.74
2018-03-25T02:37:30.580Z,100223.64
2018-03-25T02:40:00.162Z,100223.27
2018-03-25T02:42:29.370Z,100216.67
2018-03-25T02:45:00.374Z,100224.45
2018-03-25T02:47:32.065Z,100225.32
2018-03-25T02:50:01.969Z,100231.08
2018-03-25T02:52:30.930Z,100233.23
2018-03-25T02:55:00.884Z,100234.36
2018-03-25T02:57:30.972Z,100228.31
2018-03-25T03:00:00.059Z,100226.36
2018-03-25T03:02:30.917Z,100228.92
2018-03-25T03:05:01.354Z,100233.44
2018-03-25T03:07:31.438Z,100244.73
2018-03-25T03:10:00.634Z,100242.36
2018-03-25T03:12:30.547Z,100249.91
2018-03-25T03:14:59.694Z,100243.44
2018-03-25T03:17:28.769Z,100247.92
2018-03-25T03:19:58.648Z,100244.95
2018-03-25T03:22:29.782Z,100244.00
2018-03-25T03:24:59.098Z,100241.03
2018-03-25T03:27:28.134Z,100247.32
2018-03-25T03:29:58.090Z,100249.50
2018-03-25T03:32:28.015Z,100242.81
2018-03-25T03:34:57.965Z,100252.81
2018-03-25T03:37:28.463Z,100245.85
2018-03-25T03:39:57.606Z,100244.83
2018-03-25T03:42:27.581Z,100246.72
2018-03-25T03:44:59.136Z,100254.43
2018-03-25T03:47:30.588Z,100252.75
2018-03-25T03:49:59.885Z,100250.81
2018-03-25T03:52:28.825Z,100251.94
2018-03-25T03:54:58.702Z,100260.19
2018-03-25T03:57:28.410Z,100261.06
2018-03-25T03:59:57.746Z,100270.12
2018-03-25T04:02:26.802Z,100261.30
2018-03-25T04:04:55.999Z,100262.66
2018-03-25T04:07:25.954Z,100265.77
2018-03-25T04:09:55.831Z,100267.08
2018-03-25T04:12:25.889Z,100274.03
2018-03-25T04:14:54.885Z,100275.42
2018-03-25T04:17:24.086Z,100280.63
2018-03-25T04:19:53.276Z,100277.58
2018-03-25T04:22:22.385Z,100290.50
2018-03-25T04:24:53.518Z,100287.30
2018-03-25T04:27:24.974Z,100293.82
2018-03-25T04:29:54.030Z,100286.95
2018-03-25T04:32:23.019Z,100299.92
2018-03-25T04:34:53.238Z,100288.48
2018-03-25T04:37:22.174Z,100304.84
2018-03-25T04:39:51.128Z,100307.21
2018-03-25T04:42:20.869Z,100310.93
2018-03-25T04:44:50.888Z,100308.29
2018-03-25T04:47:20.768Z,100318.29
2018-03-25T04:49:52.107Z,100321.28
2018-03-25T04:52:22.021Z,100312.50
2018-03-25T04:54:51.606Z,100314.30
2018-03-25T04:57:21.561Z,100325.34
2018-03-25T04:59:50.778Z,100330.17
2018-03-25T05:02:20.397Z,100332.33
2018-03-25T05:04:50.115Z,100337.52
2018-03-25T05:07:19.105Z,100341.42
2018-03-25T05:09:48.985Z,100336.66
2018-03-25T05:12:18.936Z,100341.69
2018-03-25T05:14:48.820Z,100334.94
2018-03-25T05:17:18.626Z,100338.87
2018-03-25T05:19:47.827Z,100340.88
2018-03-25T05:22:16.840Z,100340.12
2018-03-25T05:24:46.017Z,100331.77
2018-03-25T05:27:15.974Z,100339.72
2018-03-25T05:29:45.851Z,100334.53
2018-03-25T05:32:15.596Z,100345.14
2018-03-25T05:34:44.904Z,100341.03
2018-03-25T05:37:15.335Z,100335.06
2018-03-25T05:39:44.276Z,100343.06
2018-03-25T05:42:13.480Z,100343.23
2018-03-25T05:44:43.324Z,100349.72
2018-03-25T05:47:14.000Z,100347.15
2018-03-25T05:52:18.339Z,100355.92
2018-03-25T05:54:47.257Z,100362.27
2018-03-25T05:57:16.419Z,100361.45
2018-03-25T05:59:46.523Z,100373.84
2018-03-25T06:02:15.507Z,100363.02
2018-03-25T06:04:45.327Z,100373.02
2018-03-25T06:07:14.267Z,100376.10
2018-03-25T06:09:43.467Z,100376.41
2018-03-25T06:12:14.836Z,100378.76
2018-03-25T06:14:44.339Z,100384.13
2018-03-25T06:17:14.163Z,100378.55
2018-03-25T06:19:43.526Z,100383.44
2018-03-25T06:22:12.531Z,100379.57
2018-03-25T06:24:41.743Z,100383.15
2018-03-25T06:27:13.617Z,100387.36
2018-03-25T06:29:42.587Z,100380.59
2018-03-25T06:32:11.703Z,100389.19
2018-03-25T06:34:43.027Z,100389.41
2018-03-25T06:37:23.823Z,100389.25
2018-03-25T06:39:54.627Z,100393.75
2018-03-25T06:42:23.715Z,100402.11
2018-03-25T06:44:53.763Z,100405.48
2018-03-25T06:47:23.691Z,100405.81
2018-03-25T06:49:52.725Z,100404.83
2018-03-25T06:52:21.790Z,100411.94
2018-03-25T06:54:51.454Z,100418.68
2018-03-25T06:57:21.857Z,100420.53
2018-03-25T06:59:52.548Z,100424.03
2018-03-25T07:02:22.411Z,100426.88
2018-03-25T07:04:52.488Z,100432.22
2018-03-25T07:07:21.572Z,100444.98
2018-03-25T07:09:50.715Z,100447.68
2018-03-25T07:12:19.709Z,100442.75
2018-03-25T07:14:48.922Z,100449.33
2018-03-25T07:17:18.065Z,100451.52
2018-03-25T07:19:48.217Z,100459.36
2018-03-25T07:22:19.105Z,100461.47
2018-03-25T07:24:48.123Z,100460.73
2018-03-25T07:27:17.132Z,100462.20
2018-03-25T07:29:46.313Z,100463.97
2018-03-25T07:32:19.497Z,100469.36
2018-03-25T07:34:54.744Z,100476.63
2018-03-25T07:37:25.796Z,100477.75
2018-03-25T07:39:56.569Z,100471.57
2018-03-25T07:42:26.586Z,100474.98
2018-03-25T07:47:34.888Z,100476.11
2018-03-25T07:50:04.079Z,100480.50
2018-03-25T07:52:34.629Z,100472.64
2018-03-25T07:55:04.627Z,100477.02
2018-03-25T07:57:34.735Z,100485.80
2018-03-25T08:00:04.067Z,100489.61
2018-03-25T08:02:33.217Z,100490.08
2018-03-25T08:05:02.441Z,100500.51
2018-03-25T08:10:06.571Z,100506.34
2018-03-25T08:12:37.247Z,100497.93
2018-03-25T08:15:07.400Z,100497.11
2018-03-25T08:17:36.828Z,100498.73
2018-03-25T08:20:06.796Z,100504.34
2018-03-25T08:22:37.613Z,100489.00
2018-03-25T08:25:09.438Z,100499.59
2018-03-25T08:27:38.609Z,100511.05
2018-03-25T08:30:08.907Z,100505.47
2018-03-25T08:32:40.219Z,100512.16
2018-03-25T08:35:12.990Z,100511.01
2018-03-25T08:37:43.185Z,100515.80
2018-03-25T14:05:01.088Z,100565.72
2018-03-25T14:07:30.462Z,100562.20
2018-03-25T14:10:00.511Z,100575.20
2018-03-25T14:12:32.290Z,100571.42
2018-03-25T14:15:02.931Z,100573.47
2018-03-25T14:17:34.174Z,100577.30
2018-03-25T14:20:05.053Z,100577.17
2018-03-25T14:22:35.058Z,100572.50
2018-03-25T14:27:40.662Z,100577.13
2018-03-25T14:30:10.436Z,100572.28
2018-03-25T14:32:41.878Z,100579.66
2018-03-25T14:35:12.014Z,100576.42
2018-03-25T14:37:43.947Z,100575.63
2018-03-25T14:40:14.101Z,100582.67
2018-03-25T14:42:46.266Z,100582.97
2018-03-25T14:45:17.909Z,100585.04
2018-03-25T14:47:47.612Z,100584.54
2018-03-25T14:50:18.087Z,100583.47
2018-03-25T14:52:51.977Z,100590.64
2018-03-25T14:58:41.891Z,100594.51
2018-03-25T15:01:13.070Z,100589.38
2018-03-25T15:03:43.288Z,100591.89
2018-03-25T15:06:15.595Z,100578.97
2018-03-25T15:08:47.629Z,100584.75
2018-03-25T15:11:19.258Z,100583.03
2018-03-25T15:13:48.682Z,100584.80
2018-03-25T15:16:18.677Z,100591.52
2018-03-25T15:18:48.776Z,100590.64
2018-03-25T15:21:21.759Z,100592.76
2018-03-25T15:23:51.369Z,100593.68
2018-03-25T15:26:23.138Z,100597.66
2018-03-25T15:28:53.418Z,100592.16
2018-03-25T15:31:22.808Z,100585.45
2018-03-25T15:33:53.752Z,100586.07
2018-03-25T15:36:24.227Z,100579.83
2018-03-25T15:38:53.194Z,100579.41
2018-03-25T15:43:56.201Z,100574.39
2018-03-25T15:46:25.340Z,100577.33
2018-03-25T15:48:55.181Z,100580.62
2018-03-25T15:51:25.401Z,100579.09
2018-03-25T15:53:54.632Z,100580.39
2018-03-25T15:56:25.606Z,100576.66
2018-03-25T15:58:54.589Z,100573.22
2018-03-25T16:01:23.845Z,100570.22
2018-03-25T16:03:53.792Z,100571.98
2018-03-25T16:06:22.940Z,100576.48
2018-03-25T16:08:51.741Z,100575.17
2018-03-25T16:11:21.814Z,100576.39
2018-03-25T16:13:50.836Z,100574.73
2018-03-25T16:16:19.882Z,100585.70
2018-03-25T16:18:49.089Z,100582.34
2018-03-25T16:21:19.223Z,100583.64
2018-03-25T16:23:48.348Z,100581.41
2018-03-25T16:26:18.375Z,100585.71
2018-03-25T16:28:48.602Z,100585.72
2018-03-25T16:31:18.227Z,100584.05
2018-03-25T16:33:47.408Z,100583.16
2018-03-25T16:36:16.526Z,100582.42
2018-03-25T16:38:46.572Z,100578.63
2018-03-25T16:41:15.813Z,100582.48
2018-03-25T16:46:13.271Z,100590.94
2018-03-25T16:48:42.600Z,100592.47
2018-03-25T16:51:12.079Z,100590.06
2018-03-25T16:53:42.757Z,100588.38
2018-03-25T16:56:12.973Z,100589.55
2018-03-25T16:58:42.596Z,100590.34
2018-03-25T17:01:11.558Z,100594.20
2018-03-25T17:03:40.662Z,100595.43
2018-03-25T17:06:11.078Z,100599.63
2018-03-25T17:08:40.281Z,100605.74
2018-03-25T17:11:11.307Z,100599.85
2018-03-25T17:13:40.513Z,100599.52
2018-03-25T17:16:10.224Z,100604.14
2018-03-25T17:18:39.453Z,100603.34
2018-03-25T17:21:11.774Z,100600.76
2018-03-25T17:23:40.872Z,100600.72
2018-03-25T17:26:09.872Z,100597.02
2018-03-25T17:28:43.831Z,100605.97
2018-03-25T17:31:13.809Z,100606.48
2018-03-25T17:33:43.211Z,100604.67
2018-03-25T17:36:15.344Z,100607.75
2018-03-25T17:38:44.532Z,100603.71
2018-03-25T17:41:14.707Z,100608.80
2018-03-25T17:43:45.125Z,100610.28
2018-03-25T17:46:14.315Z,100604.68
2018-03-25T17:48:43.625Z,100604.59
2018-03-25T17:51:13.581Z,100614.83
2018-03-25T17:53:42.791Z,100608.16
2018-03-25T17:56:12.436Z,100610.81
2018-03-25T17:58:42.983Z,100614.67
2018-03-25T18:01:12.125Z,100616.46
2018-03-25T18:03:42.553Z,100624.47
2018-03-25T18:06:12.535Z,100622.16
2018-03-25T18:08:42.359Z,100620.77
2018-03-25T18:11:12.052Z,100618.60
2018-03-25T18:13:44.552Z,100618.67
2018-03-25T18:16:13.923Z,100623.90
2018-03-25T18:18:43.785Z,100622.98
2018-03-25T18:23:48.183Z,100624.47
2018-03-25T18:26:18.307Z,100621.61
2018-03-25T18:28:48.853Z,100616.49
2018-03-25T18:31:19.651Z,100622.95
2018-03-25T18:33:50.148Z,100627.17
2018-03-25T18:36:28.433Z,100628.37
2018-03-25T18:38:59.627Z,100623.19
2018-03-25T18:41:29.762Z,100630.11
2018-03-25T18:43:59.507Z,100628.67
2018-03-25T18:46:29.158Z,100632.61
2018-03-25T18:48:58.682Z,100631.63
2018-03-25T18:51:28.551Z,100634.13
2018-03-25T18:54:00.394Z,100631.70
2018-03-25T18:56:29.787Z,100629.95
2018-03-25T18:58:59.527Z,100632.03
2018-03-25T19:01:29.690Z,100631.72
2018-03-25T19:03:59.283Z,100632.38
2018-03-25T19:06:29.672Z,100632.27
2018-03-25T19:08:59.860Z,100628.06
2018-03-25T19:11:29.864Z,100630.36
2018-03-25T19:13:59.398Z,100634.52
2018-03-25T19:19:03.444Z,100631.05
2018-03-25T19:21:35.575Z,100638.30
2018-03-25T19:24:05.852Z,100635.80
2018-03-25T19:26:36.036Z,100638.73
2018-03-25T19:29:06.511Z,100635.74
2018-03-25T19:31:35.370Z,100632.56
2018-03-25T19:34:04.325Z,100633.91
2018-03-25T19:36:35.366Z,100636.84
2018-03-25T19:39:04.734Z,100635.75
2018-03-25T19:41:35.098Z,100637.86
2018-03-25T19:44:07.060Z,100634.39
2018-03-25T19:49:37.243Z,100627.22
2018-03-25T19:52:06.852Z,100619.72
2018-03-25T19:54:36.635Z,100619.34
2018-03-25T19:57:06.446Z,100621.54
2018-03-25T19:59:35.678Z,100619.00
2018-03-25T20:02:04.780Z,100617.92
2018-03-25T20:04:34.590Z,100621.69
2018-03-25T20:07:03.894Z,100614.72
2018-03-25T20:09:33.095Z,100612.64
2018-03-25T20:12:03.159Z,100612.78
2018-03-25T20:14:32.410Z,100613.50
2018-03-25T20:17:01.462Z,100607.08
2018-03-25T20:19:31.843Z,100608.70
2018-03-25T20:22:00.878Z,100606.09
2018-03-25T20:24:30.147Z,100599.43
2018-03-25T20:26:59.319Z,100596.55
2018-03-25T20:29:28.534Z,100603.03
2018-03-25T20:31:57.635Z,100596.20
2018-03-25T20:34:26.677Z,100592.32
2018-03-25T20:36:57.315Z,100585.56
2018-03-25T20:39:26.690Z,100586.89
2018-03-25T20:41:56.644Z,100581.86
2018-03-25T20:44:26.530Z,100576.17
2018-03-25T20:46:55.638Z,100582.93
2018-03-25T20:49:25.110Z,100580.86
2018-03-25T20:51:54.655Z,100577.16
2018-03-25T20:54:23.823Z,100571.98
2018-03-25T20:56:53.024Z,100575.52
2018-03-25T20:59:21.854Z,100577.64
2018-03-25T21:01:52.506Z,100576.43
2018-03-25T21:04:21.510Z,100586.90
2018-03-25T21:06:51.010Z,100589.91
2018-03-25T21:09:25.273Z,100588.53
2018-03-25T21:11:54.502Z,100585.64
2018-03-25T21:14:23.630Z,100588.53
2018-03-25T21:16:54.415Z,100584.70
2018-03-25T21:19:24.080Z,100587.72
2018-03-25T21:21:58.316Z,100583.96
2018-03-25T21:24:28.849Z,100589.50
2018-03-25T21:26:58.694Z,100592.08
2018-03-25T21:29:27.666Z,100592.58
2018-03-25T21:31:57.391Z,100590.94
2018-03-25T21:34:28.321Z,100596.79
2018-03-25T21:36:58.100Z,100592.92
2018-03-25T21:39:27.255Z,100589.13
2018-03-25T21:41:56.346Z,100590.77
2018-03-25T21:44:26.192Z,100590.77
2018-03-25T21:46:56.350Z,100585.72
2018-03-25T21:49:27.832Z,100580.38
2018-03-25T21:51:57.068Z,100577.74
2018-03-25T21:54:26.729Z,100578.48
2018-03-25T21:56:56.908Z,100577.62
2018-03-25T21:59:26.155Z,100574.64
2018-03-25T22:01:55.755Z,100565.79
2018-03-25T22:04:26.658Z,100570.17
2018-03-25T22:06:55.772Z,100567.68
2018-03-25T22:09:25.689Z,100560.48
2018-03-25T22:11:55.983Z,100560.26
2018-03-25T22:14:25.485Z,100558.83
2018-03-25T22:16:55.343Z,100555.41
2018-03-25T22:19:25.888Z,100556.25
2018-03-25T22:21:55.028Z,100560.48
2018-03-25T22:24:24.845Z,100556.61
2018-03-25T22:29:29.781Z,100561.57
2018-03-25T22:31:59.644Z,100567.86
2018-03-25T22:34:30.949Z,100562.89
2018-03-25T22:37:00.432Z,100553.29
2018-03-25T22:39:29.501Z,100552.45
2018-03-25T22:42:00.505Z,100547.89
2018-03-25T22:44:29.601Z,100544.91
2018-03-25T22:46:59.618Z,100545.34
2018-03-25T22:49:31.542Z,100545.10
2018-03-25T22:52:01.412Z,100548.28
2018-03-25T22:54:30.592Z,100548.83
2018-03-25T22:57:00.720Z,100555.03
2018-03-25T22:59:33.293Z,100550.41
2018-03-25T23:02:02.892Z,100547.45
2018-03-25T23:04:33.360Z,100542.91
2018-03-25T23:07:02.486Z,100540.48
2018-03-25T23:09:32.521Z,100538.39
2018-03-25T23:12:01.933Z,100536.91
2018-03-25T23:14:31.309Z,100528.13
2018-03-25T23:17:02.418Z,100534.84
2018-03-25T23:19:31.432Z,100528.19
2018-03-25T23:22:00.654Z,100534.60
2018-03-25T23:24:29.953Z,100533.32
2018-03-25T23:26:59.395Z,100533.56
2018-03-25T23:29:28.628Z,100519.69
2018-03-25T23:31:59.425Z,100523.87
2018-03-25T23:34:29.434Z,100511.19
2018-03-25T23:36:58.534Z,100508.98
2018-03-25T23:39:28.098Z,100504.11
2018-03-25T23:41:57.213Z,100496.07
2018-03-25T23:44:26.234Z,100489.45
2018-03-25T23:46:59.165Z,100482.62
2018-03-25T23:49:28.868Z,100480.09
2018-03-25T23:52:01.077Z,100481.05
2018-03-25T23:54:30.198Z,100469.16
2018-03-25T23:57:00.062Z,100474.19
2018-03-25T23:59:30.123Z,100463.27
